METAR shows MVFR but it should be VFR



  • METAR shows MVFR for the lowest cloud layer which is scattered, but it should be VFR since the ceiling is over 3000’.

    It is this metar,
    KAGC 061353Z 34005KT 10SM SCT017 BKN039 OVC065 22/19 A3022 RMK AO2 SLP229 T02220189


Log in to reply
 

Windyty, S.E. - all rights reserved. Powered by excellent NodeBB
NodeBB & contributors, OSM & contributors, HERE maps

Looks like your connection to Windy Community was lost, please wait while we try to reconnect.